BQK weather

Public forecast

Using degrees Fahrenheit for public forecast. Weather courtesy of forecast.io.

Current aviation weather report (METAR) for Brunswick Golden Isles Airport

Retrieved 2020/08/11 23:35 UTC (24 minutes ago):

KBQK 112335Z AUTO 24011KT 10SM SCT027 SCT037 27/22 A2998 RMK AO2 LTG DSNT W THRU NE T02660222

Closest aviation forecast (TAF) to Brunswick Golden Isles Airport

Closest forecast is St Simons Island Airport, 7.5 nm (13.9 km) SSE. Retrieved 2020/08/11 18:22 UTC (6 hours ago):

TAF KSSI 111720Z 1118/1218 27006KT P6SM FEW030 SCT080 BKN200 TEMPO 1122/1202 VRB15G25KT 3SM TSRA BKN030CB FM120200 24006KT P6SM VCSH SCT050 BKN120 BKN200 FM120600 24004KT P6SM SCT050 BKN120 FM121700 22008KT P6SM FEW025 BKN050 OVC100